sensor_id;sensor_type;location;lat;lon;timestamp;temperature;humidity
8261;DHT22;64115;50.170;8.242;2023-01-30T00:01:39;-1.20;99.90
8261;DHT22;64115;50.170;8.242;2023-01-30T00:04:07;-1.20;99.90
8261;DHT22;64115;50.170;8.242;2023-01-30T00:06:35;-1.20;99.90
8261;DHT22;64115;50.170;8.242;2023-01-30T00:09:03;-1.20;99.90
8261;DHT22;64115;50.170;8.242;2023-01-30T00:11:30;-1.20;99.90
8261;DHT22;64115;50.170;8.242;2023-01-30T00:13:58;-1.20;99.90
8261;DHT22;64115;50.170;8.242;2023-01-30T00:16:25;-1.10;99.90
8261;DHT22;64115;50.170;8.242;2023-01-30T00:18:52;-1.10;99.90
8261;DHT22;64115;50.170;8.242;2023-01-30T00:21:19;-1.10;99.90
8261;DHT22;64115;50.170;8.242;2023-01-30T00:23:47;-1.10;99.90
8261;DHT22;64115;50.170;8.242;2023-01-30T00:26:15;-1.20;99.90
8261;DHT22;64115;50.170;8.242;2023-01-30T00:28:42;-1.10;99.90
8261;DHT22;64115;50.170;8.242;2023-01-30T00:31:09;-1.10;99.90
8261;DHT22;64115;50.170;8.242;2023-01-30T00:33:36;-1.10;99.90
8261;DHT22;64115;50.170;8.242;2023-01-30T00:36:04;-1.10;99.90
8261;DHT22;64115;50.170;8.242;2023-01-30T00:38:31;-1.00;99.90
8261;DHT22;64115;50.170;8.242;2023-01-30T00:41:00;-1.00;99.90
8261;DHT22;64115;50.170;8.242;2023-01-30T00:43:27;-1.00;99.90
8261;DHT22;64115;50.170;8.242;2023-01-30T00:46:15;-1.00;99.90
8261;DHT22;64115;50.170;8.242;2023-01-30T00:49:00;-0.90;99.90
8261;DHT22;64115;50.170;8.242;2023-01-30T00:51:27;-0.90;99.90
8261;DHT22;64115;50.170;8.242;2023-01-30T00:53:54;-0.90;99.90
8261;DHT22;64115;50.170;8.242;2023-01-30T00:56:22;-0.90;99.90
8261;DHT22;64115;50.170;8.242;2023-01-30T00:58:49;-0.90;99.90
8261;DHT22;64115;50.170;8.242;2023-01-30T01:01:16;-0.90;99.90
8261;DHT22;64115;50.170;8.242;2023-01-30T01:03:43;-0.90;99.90
8261;DHT22;64115;50.170;8.242;2023-01-30T01:06:10;-0.80;99.90
8261;DHT22;64115;50.170;8.242;2023-01-30T01:08:37;-0.80;99.90
8261;DHT22;64115;50.170;8.242;2023-01-30T01:11:05;-0.80;99.90
8261;DHT22;64115;50.170;8.242;2023-01-30T01:13:33;-0.80;99.90
8261;DHT22;64115;50.170;8.242;2023-01-30T01:16:00;-0.80;99.90
8261;DHT22;64115;50.170;8.242;2023-01-30T01:18:27;-0.70;99.90
8261;DHT22;64115;50.170;8.242;2023-01-30T01:20:54;-0.70;99.90
8261;DHT22;64115;50.170;8.242;2023-01-30T01:23:21;-0.70;99.90
8261;DHT22;64115;50.170;8.242;2023-01-30T01:25:48;-0.70;99.90
8261;DHT22;64115;50.170;8.242;2023-01-30T01:28:15;-0.70;99.90
8261;DHT22;64115;50.170;8.242;2023-01-30T01:30:48;-0.70;99.90
8261;DHT22;64115;50.170;8.242;2023-01-30T01:33:15;-0.60;99.90
8261;DHT22;64115;50.170;8.242;2023-01-30T01:35:42;-0.60;99.90
8261;DHT22;64115;50.170;8.242;2023-01-30T01:38:09;-0.60;99.90
8261;DHT22;64115;50.170;8.242;2023-01-30T01:40:36;-0.60;99.90
8261;DHT22;64115;50.170;8.242;2023-01-30T01:43:22;-0.60;99.90
8261;DHT22;64115;50.170;8.242;2023-01-30T01:45:54;-0.60;99.90
8261;DHT22;64115;50.170;8.242;2023-01-30T01:48:26;-0.60;99.90
8261;DHT22;64115;50.170;8.242;2023-01-30T01:50:57;-0.60;99.90
8261;DHT22;64115;50.170;8.242;2023-01-30T01:53:29;-0.50;99.90
8261;DHT22;64115;50.170;8.242;2023-01-30T01:55:58;-0.50;99.90
8261;DHT22;64115;50.170;8.242;2023-01-30T01:58:28;-0.50;99.90
8261;DHT22;64115;50.170;8.242;2023-01-30T02:01:00;-0.50;99.90
8261;DHT22;64115;50.170;8.242;2023-01-30T02:03:31;-0.50;99.90
8261;DHT22;64115;50.170;8.242;2023-01-30T02:06:00;-0.50;99.90
8261;DHT22;64115;50.170;8.242;2023-01-30T02:08:31;-0.40;99.90
8261;DHT22;64115;50.170;8.242;2023-01-30T02:11:02;-0.40;99.90
8261;DHT22;64115;50.170;8.242;2023-01-30T02:13:31;-0.40;99.90
8261;DHT22;64115;50.170;8.242;2023-01-30T02:16:01;-0.40;99.90
8261;DHT22;64115;50.170;8.242;2023-01-30T02:18:30;-0.40;99.90
8261;DHT22;64115;50.170;8.242;2023-01-30T02:24:16;-0.30;99.90
8261;DHT22;64115;50.170;8.242;2023-01-30T02:29:59;-0.30;99.90
8261;DHT22;64115;50.170;8.242;2023-01-30T02:32:36;-0.30;99.90
8261;DHT22;64115;50.170;8.242;2023-01-30T02:35:11;-0.30;99.90
8261;DHT22;64115;50.170;8.242;2023-01-30T02:37:53;-0.30;99.90
8261;DHT22;64115;50.170;8.242;2023-01-30T02:40:35;-0.30;99.90
8261;DHT22;64115;50.170;8.242;2023-01-30T02:43:12;-0.30;99.90
8261;DHT22;64115;50.170;8.242;2023-01-30T02:45:46;-0.30;99.90
8261;DHT22;64115;50.170;8.242;2023-01-30T02:48:22;-0.30;99.90
8261;DHT22;64115;50.170;8.242;2023-01-30T02:50:54;-0.30;99.90
8261;DHT22;64115;50.170;8.242;2023-01-30T02:53:22;-0.30;99.90
8261;DHT22;64115;50.170;8.242;2023-01-30T02:55:49;-0.30;99.90
8261;DHT22;64115;50.170;8.242;2023-01-30T02:58:18;-0.30;99.90
8261;DHT22;64115;50.170;8.242;2023-01-30T03:01:15;-0.30;99.90
8261;DHT22;64115;50.170;8.242;2023-01-30T03:04:06;-0.30;99.90
8261;DHT22;64115;50.170;8.242;2023-01-30T03:06:50;-0.30;99.90
8261;DHT22;64115;50.170;8.242;2023-01-30T03:09:30;-0.30;99.90
8261;DHT22;64115;50.170;8.242;2023-01-30T03:12:02;-0.30;99.90
8261;DHT22;64115;50.170;8.242;2023-01-30T03:14:40;-0.30;99.90
8261;DHT22;64115;50.170;8.242;2023-01-30T03:17:11;-0.30;99.90
8261;DHT22;64115;50.170;8.242;2023-01-30T03:19:40;-0.30;99.90
8261;DHT22;64115;50.170;8.242;2023-01-30T03:22:08;-0.30;99.90
8261;DHT22;64115;50.170;8.242;2023-01-30T03:24:35;-0.30;99.90
8261;DHT22;64115;50.170;8.242;2023-01-30T03:27:06;-0.30;99.90
8261;DHT22;64115;50.170;8.242;2023-01-30T03:29:34;-0.30;99.90
8261;DHT22;64115;50.170;8.242;2023-01-30T03:32:01;-0.20;99.90
8261;DHT22;64115;50.170;8.242;2023-01-30T03:34:28;-0.20;99.90
8261;DHT22;64115;50.170;8.242;2023-01-30T03:36:57;-0.20;99.90
8261;DHT22;64115;50.170;8.242;2023-01-30T03:39:24;-0.20;99.90
8261;DHT22;64115;50.170;8.242;2023-01-30T03:41:52;-0.20;99.90
8261;DHT22;64115;50.170;8.242;2023-01-30T03:44:20;-0.10;99.90
8261;DHT22;64115;50.170;8.242;2023-01-30T03:46:47;-0.10;99.90
8261;DHT22;64115;50.170;8.242;2023-01-30T03:49:14;-0.10;99.90
8261;DHT22;64115;50.170;8.242;2023-01-30T03:51:41;-0.10;99.90
8261;DHT22;64115;50.170;8.242;2023-01-30T03:54:09;-0.10;99.90
8261;DHT22;64115;50.170;8.242;2023-01-30T03:56:36;0.00;99.90
8261;DHT22;64115;50.170;8.242;2023-01-30T03:59:03;0.00;99.90
8261;DHT22;64115;50.170;8.242;2023-01-30T04:01:30;0.00;99.90
8261;DHT22;64115;50.170;8.242;2023-01-30T04:03:57;0.00;99.90
8261;DHT22;64115;50.170;8.242;2023-01-30T04:06:24;0.00;99.90
8261;DHT22;64115;50.170;8.242;2023-01-30T04:08:51;0.00;99.90
8261;DHT22;64115;50.170;8.242;2023-01-30T04:11:20;0.10;99.90
8261;DHT22;64115;50.170;8.242;2023-01-30T04:13:47;0.10;99.90
8261;DHT22;64115;50.170;8.242;2023-01-30T04:16:16;0.20;99.90
8261;DHT22;64115;50.170;8.242;2023-01-30T04:18:43;0.20;99.90
8261;DHT22;64115;50.170;8.242;2023-01-30T04:21:11;0.20;99.90
8261;DHT22;64115;50.170;8.242;2023-01-30T04:23:39;0.30;99.90
8261;DHT22;64115;50.170;8.242;2023-01-30T04:26:06;0.40;99.90
8261;DHT22;64115;50.170;8.242;2023-01-30T04:28:36;0.30;99.90
8261;DHT22;64115;50.170;8.242;2023-01-30T04:31:03;0.30;99.90
8261;DHT22;64115;50.170;8.242;2023-01-30T04:33:31;0.30;99.90
8261;DHT22;64115;50.170;8.242;2023-01-30T04:36:01;0.30;99.90
8261;DHT22;64115;50.170;8.242;2023-01-30T04:38:30;0.30;99.90
8261;DHT22;64115;50.170;8.242;2023-01-30T04:40:57;0.30;99.90
8261;DHT22;64115;50.170;8.242;2023-01-30T04:43:26;0.30;99.90
8261;DHT22;64115;50.170;8.242;2023-01-30T04:45:55;0.40;99.90
8261;DHT22;64115;50.170;8.242;2023-01-30T04:48:23;0.40;99.90
8261;DHT22;64115;50.170;8.242;2023-01-30T04:50:53;0.40;99.90
8261;DHT22;64115;50.170;8.242;2023-01-30T04:53:21;0.40;99.90
8261;DHT22;64115;50.170;8.242;2023-01-30T04:55:48;0.40;99.90
8261;DHT22;64115;50.170;8.242;2023-01-30T04:58:16;0.50;99.90
8261;DHT22;64115;50.170;8.242;2023-01-30T05:00:45;0.50;99.90
8261;DHT22;64115;50.170;8.242;2023-01-30T05:03:14;0.50;99.90
8261;DHT22;64115;50.170;8.242;2023-01-30T05:05:41;0.50;99.90
8261;DHT22;64115;50.170;8.242;2023-01-30T05:08:08;0.50;99.90
8261;DHT22;64115;50.170;8.242;2023-01-30T05:10:35;0.50;99.90
8261;DHT22;64115;50.170;8.242;2023-01-30T05:13:03;0.50;99.90
8261;DHT22;64115;50.170;8.242;2023-01-30T05:15:30;0.50;99.90
8261;DHT22;64115;50.170;8.242;2023-01-30T05:17:58;0.50;99.90
8261;DHT22;64115;50.170;8.242;2023-01-30T05:20:27;0.50;99.90
8261;DHT22;64115;50.170;8.242;2023-01-30T05:22:54;0.50;99.90
8261;DHT22;64115;50.170;8.242;2023-01-30T05:25:21;0.60;99.90
8261;DHT22;64115;50.170;8.242;2023-01-30T05:27:48;0.60;99.90
8261;DHT22;64115;50.170;8.242;2023-01-30T05:30:16;0.60;99.90
8261;DHT22;64115;50.170;8.242;2023-01-30T05:32:43;0.60;99.90
8261;DHT22;64115;50.170;8.242;2023-01-30T05:35:10;0.60;99.90
8261;DHT22;64115;50.170;8.242;2023-01-30T05:37:38;0.60;99.90
8261;DHT22;64115;50.170;8.242;2023-01-30T05:40:06;0.60;99.90
8261;DHT22;64115;50.170;8.242;2023-01-30T05:42:33;0.60;99.90
8261;DHT22;64115;50.170;8.242;2023-01-30T05:45:00;0.60;99.90
8261;DHT22;64115;50.170;8.242;2023-01-30T05:47:27;0.60;99.90
8261;DHT22;64115;50.170;8.242;2023-01-30T05:49:54;0.60;99.90
8261;DHT22;64115;50.170;8.242;2023-01-30T05:52:22;0.60;99.90
8261;DHT22;64115;50.170;8.242;2023-01-30T05:54:50;0.60;99.90
8261;DHT22;64115;50.170;8.242;2023-01-30T05:57:17;0.60;99.90
8261;DHT22;64115;50.170;8.242;2023-01-30T05:59:44;0.60;99.90
8261;DHT22;64115;50.170;8.242;2023-01-30T06:02:11;0.60;99.90
8261;DHT22;64115;50.170;8.242;2023-01-30T06:04:38;0.60;99.90
8261;DHT22;64115;50.170;8.242;2023-01-30T06:07:05;0.60;99.90
8261;DHT22;64115;50.170;8.242;2023-01-30T06:09:31;0.60;99.90
8261;DHT22;64115;50.170;8.242;2023-01-30T06:12:00;0.60;99.90
8261;DHT22;64115;50.170;8.242;2023-01-30T06:14:27;0.60;99.90
8261;DHT22;64115;50.170;8.242;2023-01-30T06:16:54;0.60;99.90
8261;DHT22;64115;50.170;8.242;2023-01-30T06:19:21;0.60;99.90
8261;DHT22;64115;50.170;8.242;2023-01-30T06:21:48;0.60;99.90
8261;DHT22;64115;50.170;8.242;2023-01-30T06:24:15;0.60;99.90
8261;DHT22;64115;50.170;8.242;2023-01-30T06:26:42;0.70;99.90
8261;DHT22;64115;50.170;8.242;2023-01-30T06:29:10;0.70;99.90
8261;DHT22;64115;50.170;8.242;2023-01-30T06:31:37;0.70;99.90
8261;DHT22;64115;50.170;8.242;2023-01-30T06:34:04;0.70;99.90
8261;DHT22;64115;50.170;8.242;2023-01-30T06:36:31;0.70;99.90
8261;DHT22;64115;50.170;8.242;2023-01-30T06:38:58;0.80;99.90
8261;DHT22;64115;50.170;8.242;2023-01-30T06:41:26;0.80;99.90
8261;DHT22;64115;50.170;8.242;2023-01-30T06:43:53;0.80;99.90
8261;DHT22;64115;50.170;8.242;2023-01-30T06:46:21;0.70;99.90
8261;DHT22;64115;50.170;8.242;2023-01-30T06:48:48;0.80;99.90
8261;DHT22;64115;50.170;8.242;2023-01-30T06:51:15;0.80;99.90
8261;DHT22;64115;50.170;8.242;2023-01-30T06:53:42;0.80;99.90
8261;DHT22;64115;50.170;8.242;2023-01-30T06:56:09;0.80;99.90
8261;DHT22;64115;50.170;8.242;2023-01-30T06:58:36;0.80;99.90
8261;DHT22;64115;50.170;8.242;2023-01-30T07:01:03;0.80;99.90
8261;DHT22;64115;50.170;8.242;2023-01-30T07:03:32;0.80;99.90
8261;DHT22;64115;50.170;8.242;2023-01-30T07:05:59;0.90;99.90
8261;DHT22;64115;50.170;8.242;2023-01-30T07:08:27;0.90;99.90
8261;DHT22;64115;50.170;8.242;2023-01-30T07:10:54;0.90;99.90
8261;DHT22;64115;50.170;8.242;2023-01-30T07:13:20;0.90;99.90
8261;DHT22;64115;50.170;8.242;2023-01-30T07:15:47;0.90;99.90
8261;DHT22;64115;50.170;8.242;2023-01-30T07:18:15;0.90;99.90
8261;DHT22;64115;50.170;8.242;2023-01-30T07:20:47;0.90;99.90
8261;DHT22;64115;50.170;8.242;2023-01-30T07:23:14;1.00;99.90
8261;DHT22;64115;50.170;8.242;2023-01-30T07:25:42;0.90;99.90
8261;DHT22;64115;50.170;8.242;2023-01-30T07:28:09;1.00;99.90
8261;DHT22;64115;50.170;8.242;2023-01-30T07:30:36;1.10;99.90
8261;DHT22;64115;50.170;8.242;2023-01-30T07:33:04;1.00;99.90
8261;DHT22;64115;50.170;8.242;2023-01-30T07:35:33;1.00;99.90
8261;DHT22;64115;50.170;8.242;2023-01-30T07:38:03;1.00;99.90
8261;DHT22;64115;50.170;8.242;2023-01-30T07:40:30;1.00;99.90
8261;DHT22;64115;50.170;8.242;2023-01-30T07:42:58;1.00;99.90
8261;DHT22;64115;50.170;8.242;2023-01-30T07:45:27;1.00;99.90
8261;DHT22;64115;50.170;8.242;2023-01-30T07:47:55;1.00;99.90
8261;DHT22;64115;50.170;8.242;2023-01-30T07:50:22;1.00;99.90
8261;DHT22;64115;50.170;8.242;2023-01-30T07:52:50;1.00;99.90
8261;DHT22;64115;50.170;8.242;2023-01-30T07:55:18;1.00;99.90
8261;DHT22;64115;50.170;8.242;2023-01-30T07:57:45;1.00;99.90
8261;DHT22;64115;50.170;8.242;2023-01-30T08:00:23;0.90;99.90
8261;DHT22;64115;50.170;8.242;2023-01-30T08:02:50;1.00;99.90
8261;DHT22;64115;50.170;8.242;2023-01-30T08:05:17;1.00;99.90
8261;DHT22;64115;50.170;8.242;2023-01-30T08:07:44;0.90;99.90
8261;DHT22;64115;50.170;8.242;2023-01-30T08:10:12;1.00;99.90
8261;DHT22;64115;50.170;8.242;2023-01-30T08:12:41;1.00;99.90
8261;DHT22;64115;50.170;8.242;2023-01-30T08:15:09;1.10;99.90
8261;DHT22;64115;50.170;8.242;2023-01-30T08:17:36;1.10;99.90
8261;DHT22;64115;50.170;8.242;2023-01-30T08:20:04;1.10;99.90
8261;DHT22;64115;50.170;8.242;2023-01-30T08:22:31;1.10;99.90
8261;DHT22;64115;50.170;8.242;2023-01-30T08:24:58;1.20;99.90
8261;DHT22;64115;50.170;8.242;2023-01-30T08:27:25;1.20;99.90
8261;DHT22;64115;50.170;8.242;2023-01-30T08:29:53;1.20;99.90
8261;DHT22;64115;50.170;8.242;2023-01-30T08:32:21;1.20;99.90
8261;DHT22;64115;50.170;8.242;2023-01-30T08:34:48;1.30;99.90
8261;DHT22;64115;50.170;8.242;2023-01-30T08:37:15;1.30;99.90
8261;DHT22;64115;50.170;8.242;2023-01-30T08:39:42;1.30;99.90
8261;DHT22;64115;50.170;8.242;2023-01-30T08:42:09;1.40;99.90
8261;DHT22;64115;50.170;8.242;2023-01-30T08:44:36;1.40;99.90
8261;DHT22;64115;50.170;8.242;2023-01-30T08:47:05;1.40;99.90
8261;DHT22;64115;50.170;8.242;2023-01-30T08:49:32;1.40;99.90
8261;DHT22;64115;50.170;8.242;2023-01-30T08:51:59;1.40;99.90
8261;DHT22;64115;50.170;8.242;2023-01-30T08:54:26;1.30;99.90
8261;DHT22;64115;50.170;8.242;2023-01-30T08:56:53;1.40;99.90
8261;DHT22;64115;50.170;8.242;2023-01-30T08:59:20;1.40;99.90
8261;DHT22;64115;50.170;8.242;2023-01-30T09:01:47;1.40;99.90
8261;DHT22;64115;50.170;8.242;2023-01-30T09:04:15;1.40;99.90
8261;DHT22;64115;50.170;8.242;2023-01-30T09:06:42;1.40;99.90
8261;DHT22;64115;50.170;8.242;2023-01-30T09:09:09;1.40;99.90
8261;DHT22;64115;50.170;8.242;2023-01-30T09:11:36;1.50;99.90
8261;DHT22;64115;50.170;8.242;2023-01-30T09:14:03;1.60;99.90
8261;DHT22;64115;50.170;8.242;2023-01-30T09:16:30;1.60;99.90
8261;DHT22;64115;50.170;8.242;2023-01-30T09:18:57;1.60;99.90
8261;DHT22;64115;50.170;8.242;2023-01-30T09:21:26;1.70;99.90
8261;DHT22;64115;50.170;8.242;2023-01-30T09:23:54;1.70;99.90
8261;DHT22;64115;50.170;8.242;2023-01-30T09:26:21;1.80;99.90
8261;DHT22;64115;50.170;8.242;2023-01-30T09:28:48;1.80;99.90
8261;DHT22;64115;50.170;8.242;2023-01-30T09:31:15;1.70;99.90
8261;DHT22;64115;50.170;8.242;2023-01-30T09:33:42;1.70;99.90
8261;DHT22;64115;50.170;8.242;2023-01-30T09:36:09;1.70;99.90
8261;DHT22;64115;50.170;8.242;2023-01-30T09:38:37;1.60;99.90
8261;DHT22;64115;50.170;8.242;2023-01-30T09:41:19;1.60;99.90
8261;DHT22;64115;50.170;8.242;2023-01-30T09:44:18;1.60;99.90
8261;DHT22;64115;50.170;8.242;2023-01-30T09:46:50;1.60;99.90
8261;DHT22;64115;50.170;8.242;2023-01-30T09:49:27;1.60;99.90
8261;DHT22;64115;50.170;8.242;2023-01-30T09:52:05;1.60;99.90
8261;DHT22;64115;50.170;8.242;2023-01-30T09:54:40;1.70;99.90
8261;DHT22;64115;50.170;8.242;2023-01-30T09:57:11;1.80;99.90
8261;DHT22;64115;50.170;8.242;2023-01-30T09:59:47;1.80;99.90
8261;DHT22;64115;50.170;8.242;2023-01-30T10:05:07;1.90;99.90
8261;DHT22;64115;50.170;8.242;2023-01-30T10:07:57;1.80;99.90
8261;DHT22;64115;50.170;8.242;2023-01-30T10:10:40;1.80;99.90
8261;DHT22;64115;50.170;8.242;2023-01-30T10:13:34;1.80;99.90
8261;DHT22;64115;50.170;8.242;2023-01-30T10:16:12;1.80;99.90
8261;DHT22;64115;50.170;8.242;2023-01-30T10:21:42;2.00;99.90
8261;DHT22;64115;50.170;8.242;2023-01-30T10:24:32;2.20;99.90
8261;DHT22;64115;50.170;8.242;2023-01-30T10:27:03;2.50;99.90
8261;DHT22;64115;50.170;8.242;2023-01-30T10:29:40;2.80;99.90
8261;DHT22;64115;50.170;8.242;2023-01-30T10:32:16;2.70;99.90
8261;DHT22;64115;50.170;8.242;2023-01-30T10:34:47;2.60;99.90
8261;DHT22;64115;50.170;8.242;2023-01-30T10:37:21;2.60;99.90
8261;DHT22;64115;50.170;8.242;2023-01-30T10:39:58;2.60;99.90
8261;DHT22;64115;50.170;8.242;2023-01-30T10:42:40;2.70;99.90
8261;DHT22;64115;50.170;8.242;2023-01-30T10:45:12;2.70;99.90
8261;DHT22;64115;50.170;8.242;2023-01-30T10:47:47;2.60;99.90
8261;DHT22;64115;50.170;8.242;2023-01-30T10:50:22;2.60;99.90
8261;DHT22;64115;50.170;8.242;2023-01-30T10:52:55;2.70;99.90
8261;DHT22;64115;50.170;8.242;2023-01-30T10:55:31;2.70;99.90
8261;DHT22;64115;50.170;8.242;2023-01-30T10:58:06;2.60;99.90
8261;DHT22;64115;50.170;8.242;2023-01-30T11:00:42;2.60;99.90
8261;DHT22;64115;50.170;8.242;2023-01-30T11:03:19;2.50;99.90
8261;DHT22;64115;50.170;8.242;2023-01-30T11:05:49;2.70;99.90
8261;DHT22;64115;50.170;8.242;2023-01-30T11:08:20;2.90;99.90
8261;DHT22;64115;50.170;8.242;2023-01-30T11:10:47;3.00;99.90
8261;DHT22;64115;50.170;8.242;2023-01-30T11:13:19;3.00;99.90
8261;DHT22;64115;50.170;8.242;2023-01-30T11:15:49;3.10;99.90
8261;DHT22;64115;50.170;8.242;2023-01-30T11:18:18;3.10;99.90
8261;DHT22;64115;50.170;8.242;2023-01-30T11:21:00;3.20;99.90
8261;DHT22;64115;50.170;8.242;2023-01-30T11:23:32;3.00;99.90
8261;DHT22;64115;50.170;8.242;2023-01-30T11:26:02;3.00;99.90
8261;DHT22;64115;50.170;8.242;2023-01-30T11:28:38;2.90;99.90
8261;DHT22;64115;50.170;8.242;2023-01-30T11:31:15;2.90;99.90
8261;DHT22;64115;50.170;8.242;2023-01-30T11:33:43;2.90;99.90
8261;DHT22;64115;50.170;8.242;2023-01-30T11:36:24;2.90;99.90
8261;DHT22;64115;50.170;8.242;2023-01-30T11:38:56;2.80;99.90
8261;DHT22;64115;50.170;8.242;2023-01-30T11:41:23;2.90;99.90
8261;DHT22;64115;50.170;8.242;2023-01-30T11:43:58;3.00;99.90
8261;DHT22;64115;50.170;8.242;2023-01-30T11:46:29;3.20;99.90
8261;DHT22;64115;50.170;8.242;2023-01-30T11:48:59;3.40;99.90
8261;DHT22;64115;50.170;8.242;2023-01-30T11:51:27;3.60;99.90
8261;DHT22;64115;50.170;8.242;2023-01-30T11:53:56;3.60;99.90
8261;DHT22;64115;50.170;8.242;2023-01-30T11:56:31;3.40;99.90
8261;DHT22;64115;50.170;8.242;2023-01-30T11:59:03;3.20;99.90
8261;DHT22;64115;50.170;8.242;2023-01-30T12:01:32;3.10;99.90
8261;DHT22;64115;50.170;8.242;2023-01-30T12:04:03;3.10;99.90
8261;DHT22;64115;50.170;8.242;2023-01-30T12:06:33;3.10;99.90
8261;DHT22;64115;50.170;8.242;2023-01-30T12:09:00;3.00;99.90
8261;DHT22;64115;50.170;8.242;2023-01-30T12:11:30;2.90;99.90
8261;DHT22;64115;50.170;8.242;2023-01-30T12:14:20;2.90;99.90
8261;DHT22;64115;50.170;8.242;2023-01-30T12:16:58;2.80;99.90
8261;DHT22;64115;50.170;8.242;2023-01-30T12:19:34;2.70;99.90
8261;DHT22;64115;50.170;8.242;2023-01-30T12:22:11;2.70;99.90
8261;DHT22;64115;50.170;8.242;2023-01-30T12:24:45;2.80;99.90
8261;DHT22;64115;50.170;8.242;2023-01-30T12:27:19;2.90;99.90
8261;DHT22;64115;50.170;8.242;2023-01-30T12:29:57;3.10;99.90
8261;DHT22;64115;50.170;8.242;2023-01-30T12:32:27;3.00;99.90
8261;DHT22;64115;50.170;8.242;2023-01-30T12:34:54;3.00;99.90
8261;DHT22;64115;50.170;8.242;2023-01-30T12:37:35;3.10;99.90
8261;DHT22;64115;50.170;8.242;2023-01-30T12:40:12;3.40;99.90
8261;DHT22;64115;50.170;8.242;2023-01-30T12:43:01;3.80;99.90
8261;DHT22;64115;50.170;8.242;2023-01-30T12:45:33;4.00;99.90
8261;DHT22;64115;50.170;8.242;2023-01-30T12:51:07;3.80;99.90
8261;DHT22;64115;50.170;8.242;2023-01-30T12:53:46;3.70;99.90
8261;DHT22;64115;50.170;8.242;2023-01-30T12:59:20;3.40;99.90
8261;DHT22;64115;50.170;8.242;2023-01-30T13:02:01;3.20;99.90
8261;DHT22;64115;50.170;8.242;2023-01-30T13:04:42;3.10;99.90
8261;DHT22;64115;50.170;8.242;2023-01-30T13:07:16;3.10;99.90
8261;DHT22;64115;50.170;8.242;2023-01-30T13:09:58;3.20;99.90
8261;DHT22;64115;50.170;8.242;2023-01-30T13:12:34;3.30;99.90
8261;DHT22;64115;50.170;8.242;2023-01-30T13:15:11;3.30;99.90
8261;DHT22;64115;50.170;8.242;2023-01-30T13:17:51;3.40;99.90
8261;DHT22;64115;50.170;8.242;2023-01-30T13:20:40;3.40;99.90
8261;DHT22;64115;50.170;8.242;2023-01-30T13:23:14;3.30;99.90
8261;DHT22;64115;50.170;8.242;2023-01-30T13:25:50;3.30;99.90
8261;DHT22;64115;50.170;8.242;2023-01-30T13:28:26;3.30;99.90
8261;DHT22;64115;50.170;8.242;2023-01-30T13:30:55;3.30;99.90
8261;DHT22;64115;50.170;8.242;2023-01-30T13:33:27;3.40;99.90
8261;DHT22;64115;50.170;8.242;2023-01-30T13:36:04;3.40;99.90
8261;DHT22;64115;50.170;8.242;2023-01-30T13:38:35;3.40;99.90
8261;DHT22;64115;50.170;8.242;2023-01-30T13:41:07;3.40;99.90
8261;DHT22;64115;50.170;8.242;2023-01-30T13:43:38;3.40;99.90
8261;DHT22;64115;50.170;8.242;2023-01-30T13:46:07;3.30;99.90
8261;DHT22;64115;50.170;8.242;2023-01-30T13:48:48;3.30;99.90
8261;DHT22;64115;50.170;8.242;2023-01-30T13:51:27;3.30;99.90
8261;DHT22;64115;50.170;8.242;2023-01-30T13:54:01;3.40;99.90
8261;DHT22;64115;50.170;8.242;2023-01-30T13:56:33;3.40;99.90
8261;DHT22;64115;50.170;8.242;2023-01-30T13:59:12;3.50;99.90
8261;DHT22;64115;50.170;8.242;2023-01-30T14:02:16;3.40;99.90
8261;DHT22;64115;50.170;8.242;2023-01-30T14:04:47;3.40;99.90
8261;DHT22;64115;50.170;8.242;2023-01-30T14:07:26;3.30;99.90
8261;DHT22;64115;50.170;8.242;2023-01-30T14:10:14;3.20;99.90
8261;DHT22;64115;50.170;8.242;2023-01-30T14:12:43;3.20;99.90
8261;DHT22;64115;50.170;8.242;2023-01-30T14:15:22;3.20;99.90
8261;DHT22;64115;50.170;8.242;2023-01-30T14:18:02;3.20;99.90
8261;DHT22;64115;50.170;8.242;2023-01-30T14:20:34;3.20;99.90
8261;DHT22;64115;50.170;8.242;2023-01-30T14:23:04;3.20;99.90
8261;DHT22;64115;50.170;8.242;2023-01-30T14:25:47;3.30;99.90
8261;DHT22;64115;50.170;8.242;2023-01-30T14:28:48;3.30;99.90
8261;DHT22;64115;50.170;8.242;2023-01-30T14:31:49;3.20;99.90
8261;DHT22;64115;50.170;8.242;2023-01-30T14:38:09;3.30;99.90
8261;DHT22;64115;50.170;8.242;2023-01-30T14:43:37;3.50;99.90
8261;DHT22;64115;50.170;8.242;2023-01-30T14:46:06;3.60;99.90
8261;DHT22;64115;50.170;8.242;2023-01-30T14:48:49;3.60;99.90
8261;DHT22;64115;50.170;8.242;2023-01-30T14:51:23;3.40;99.90
8261;DHT22;64115;50.170;8.242;2023-01-30T14:53:59;3.30;99.90
8261;DHT22;64115;50.170;8.242;2023-01-30T14:56:43;3.20;99.90
8261;DHT22;64115;50.170;8.242;2023-01-30T14:59:23;3.10;99.90
8261;DHT22;64115;50.170;8.242;2023-01-30T15:01:59;3.20;99.90
8261;DHT22;64115;50.170;8.242;2023-01-30T15:04:30;3.20;99.90
8261;DHT22;64115;50.170;8.242;2023-01-30T15:07:04;3.20;99.90
8261;DHT22;64115;50.170;8.242;2023-01-30T15:09:37;3.10;99.90
8261;DHT22;64115;50.170;8.242;2023-01-30T15:15:17;3.10;99.90
8261;DHT22;64115;50.170;8.242;2023-01-30T15:17:57;3.10;99.90
8261;DHT22;64115;50.170;8.242;2023-01-30T15:20:37;3.00;99.90
8261;DHT22;64115;50.170;8.242;2023-01-30T15:23:22;2.90;99.90
8261;DHT22;64115;50.170;8.242;2023-01-30T15:26:08;2.80;99.90
8261;DHT22;64115;50.170;8.242;2023-01-30T15:28:45;2.80;99.90
8261;DHT22;64115;50.170;8.242;2023-01-30T15:31:15;2.70;99.90
8261;DHT22;64115;50.170;8.242;2023-01-30T15:33:45;2.60;99.90
8261;DHT22;64115;50.170;8.242;2023-01-30T15:36:27;2.60;99.90
8261;DHT22;64115;50.170;8.242;2023-01-30T15:39:15;2.60;99.90
8261;DHT22;64115;50.170;8.242;2023-01-30T15:41:46;2.70;99.90
8261;DHT22;64115;50.170;8.242;2023-01-30T15:44:47;2.80;99.90
8261;DHT22;64115;50.170;8.242;2023-01-30T15:47:35;2.90;99.90
8261;DHT22;64115;50.170;8.242;2023-01-30T15:50:09;2.80;99.90
8261;DHT22;64115;50.170;8.242;2023-01-30T15:52:38;2.80;99.90
8261;DHT22;64115;50.170;8.242;2023-01-30T15:55:15;2.70;99.90
8261;DHT22;64115;50.170;8.242;2023-01-30T15:57:47;2.50;99.90
8261;DHT22;64115;50.170;8.242;2023-01-30T16:00:24;2.50;99.90
8261;DHT22;64115;50.170;8.242;2023-01-30T16:02:52;2.50;99.90
8261;DHT22;64115;50.170;8.242;2023-01-30T16:05:21;2.40;99.90
8261;DHT22;64115;50.170;8.242;2023-01-30T16:07:50;2.40;99.90
8261;DHT22;64115;50.170;8.242;2023-01-30T16:10:19;2.30;99.90
8261;DHT22;64115;50.170;8.242;2023-01-30T16:12:49;2.30;99.90
8261;DHT22;64115;50.170;8.242;2023-01-30T16:15:25;2.30;99.90
8261;DHT22;64115;50.170;8.242;2023-01-30T16:17:58;2.30;99.90
8261;DHT22;64115;50.170;8.242;2023-01-30T16:20:26;2.20;99.90
8261;DHT22;64115;50.170;8.242;2023-01-30T16:22:53;2.20;99.90
8261;DHT22;64115;50.170;8.242;2023-01-30T16:25:23;2.30;99.90
8261;DHT22;64115;50.170;8.242;2023-01-30T16:27:52;2.30;99.90
8261;DHT22;64115;50.170;8.242;2023-01-30T16:30:21;2.30;99.90
8261;DHT22;64115;50.170;8.242;2023-01-30T16:32:50;2.30;99.90
8261;DHT22;64115;50.170;8.242;2023-01-30T16:35:27;2.30;99.90
8261;DHT22;64115;50.170;8.242;2023-01-30T16:37:56;2.30;99.90
8261;DHT22;64115;50.170;8.242;2023-01-30T16:40:25;2.40;99.90
8261;DHT22;64115;50.170;8.242;2023-01-30T16:42:56;2.40;99.90
8261;DHT22;64115;50.170;8.242;2023-01-30T16:48:32;2.50;99.90
8261;DHT22;64115;50.170;8.242;2023-01-30T16:51:16;2.50;99.90
8261;DHT22;64115;50.170;8.242;2023-01-30T16:53:50;2.50;99.90
8261;DHT22;64115;50.170;8.242;2023-01-30T16:56:33;2.50;99.90